Aviation Digital Data Service (ADDS)

Output produced by METARs form (1208 UTC 24 March 2017)
found at http://www.aviationweather.gov/adds/metars/
 
GQPA 240900Z 36017KT 8000 NSC 19/06 Q1017
GQPP 241200Z 05014KT 7000 DRSA NSC 23/09 Q1015 NOSIG
TAF GQPP 241104Z 2412/2512 02016G26KT 6000 NSC 
     TEMPO 0414/0420 4000 SA